createdAt,value
2017-07-21T00:00:07.919Z,1012.78
2017-07-21T00:01:17.122Z,1012.79
2017-07-21T00:02:26.333Z,1012.86
2017-07-21T00:03:35.224Z,1012.85
2017-07-21T00:04:44.751Z,1012.83
2017-07-21T00:05:53.959Z,1012.8
2017-07-21T00:07:03.965Z,1012.83
2017-07-21T00:08:12.844Z,1012.85
2017-07-21T00:09:22.046Z,1012.88
2017-07-21T00:10:31.251Z,1012.84
2017-07-21T00:11:40.460Z,1012.82
2017-07-21T00:12:50.939Z,1012.86
2017-07-21T00:13:59.819Z,1012.83
2017-07-21T00:15:09.347Z,1012.86
2017-07-21T00:16:18.876Z,1012.86
2017-07-21T00:17:28.730Z,1012.89
2017-07-21T00:18:38.313Z,1013
2017-07-21T00:19:47.522Z,1013
2017-07-21T00:20:57.051Z,1013.02
2017-07-21T00:22:07.232Z,1013.05
2017-07-21T00:23:16.763Z,1013.06
2017-07-21T00:24:25.645Z,1013.09
2017-07-21T00:25:34.528Z,1013.1
2017-07-21T00:26:44.060Z,1013.15
2017-07-21T00:27:53.591Z,1013.16
2017-07-21T00:29:02.796Z,1013.14
2017-07-21T00:30:12.054Z,1013.15
2017-07-21T00:31:21.594Z,1013.14
2017-07-21T00:32:30.813Z,1013.14
2017-07-21T00:33:39.694Z,1013.24
2017-07-21T00:34:48.901Z,1013.28
2017-07-21T00:35:58.458Z,1013.29
2017-07-21T00:37:07.991Z,1013.26
2017-07-21T00:38:17.525Z,1013.31
2017-07-21T00:39:26.730Z,1013.32
2017-07-21T00:40:36.286Z,1013.35
2017-07-21T00:41:45.592Z,1013.33
2017-07-21T00:42:55.146Z,1013.38
2017-07-21T00:44:04.350Z,1013.39
2017-07-21T00:45:13.875Z,1013.31
2017-07-21T00:46:23.431Z,1013.37
2017-07-21T00:47:32.463Z,1013.4
2017-07-21T00:48:41.995Z,1013.46
2017-07-21T00:49:51.844Z,1013.47
2017-07-21T00:51:01.694Z,1013.48
2017-07-21T00:52:11.219Z,1013.45
2017-07-21T00:53:20.472Z,1013.46
2017-07-21T00:54:29.358Z,1013.5
2017-07-21T00:55:39.212Z,1013.53
2017-07-21T00:56:48.415Z,1013.51
2017-07-21T00:57:57.622Z,1013.5
2017-07-21T00:59:06.995Z,1013.54
2017-07-21T01:00:16.522Z,1013.53
2017-07-21T01:01:26.051Z,1013.55
2017-07-21T01:02:34.934Z,1013.6
2017-07-21T01:03:44.462Z,1013.53
2017-07-21T01:04:54.245Z,1013.57
2017-07-21T01:06:03.451Z,1013.55
2017-07-21T01:07:12.986Z,1013.51
2017-07-21T01:08:22.194Z,1013.55
2017-07-21T01:09:32.370Z,1013.56
2017-07-21T01:10:41.730Z,1013.52
2017-07-21T01:11:51.581Z,1013.57
2017-07-21T01:13:00.476Z,1013.53
2017-07-21T01:14:10.013Z,1013.54
2017-07-21T01:15:19.544Z,1013.58
2017-07-21T01:16:28.579Z,1013.56
2017-07-21T01:17:38.112Z,1013.65
2017-07-21T01:18:47.964Z,1013.54
2017-07-21T01:19:57.168Z,1013.59
2017-07-21T01:21:06.711Z,1013.57
2017-07-21T01:22:16.814Z,1013.59
2017-07-21T01:23:26.670Z,1013.59
2017-07-21T01:24:35.878Z,1013.62
2017-07-21T01:25:44.758Z,1013.69
2017-07-21T01:26:53.641Z,1013.66
2017-07-21T01:28:03.170Z,1013.7
2017-07-21T01:29:13.020Z,1013.68
2017-07-21T01:30:22.226Z,1013.68
2017-07-21T01:31:32.075Z,1013.69
2017-07-21T01:32:41.285Z,1013.67
2017-07-21T01:33:50.543Z,1013.69
2017-07-21T01:34:59.753Z,1013.65
2017-07-21T01:36:09.930Z,1013.62
2017-07-21T01:37:18.813Z,1013.66
2017-07-21T01:38:28.665Z,1013.65
2017-07-21T01:39:38.018Z,1013.68
2017-07-21T01:40:47.221Z,1013.62
2017-07-21T01:41:56.430Z,1013.6
2017-07-21T01:43:06.285Z,1013.64
2017-07-21T01:44:15.173Z,1013.66
2017-07-21T01:45:24.207Z,1013.67
2017-07-21T01:46:33.748Z,1013.66
2017-07-21T01:47:42.949Z,1013.65
2017-07-21T01:48:51.824Z,1013.68
2017-07-21T01:50:01.381Z,1013.71
2017-07-21T01:51:11.066Z,1013.67
2017-07-21T01:52:20.914Z,1013.75
2017-07-21T01:53:29.797Z,1013.67
2017-07-21T01:54:39.001Z,1013.72
2017-07-21T01:55:48.204Z,1013.67
2017-07-21T01:56:57.234Z,1013.67
2017-07-21T01:58:07.087Z,1013.67
2017-07-21T01:59:16.619Z,1013.63
2017-07-21T02:00:25.823Z,1013.61
2017-07-21T02:01:35.681Z,1013.65
2017-07-21T02:02:45.038Z,1013.65
2017-07-21T02:03:55.212Z,1013.69
2017-07-21T02:05:05.063Z,1013.71
2017-07-21T02:06:14.285Z,1013.69
2017-07-21T02:07:24.138Z,1013.71
2017-07-21T02:08:33.339Z,1013.7
2017-07-21T02:09:42.870Z,1013.74
2017-07-21T02:10:52.075Z,1013.73
2017-07-21T02:12:01.606Z,1013.72
2017-07-21T02:13:10.810Z,1013.73
2017-07-21T02:14:20.214Z,1013.73
2017-07-21T02:15:29.424Z,1013.75
2017-07-21T02:16:38.637Z,1013.77
2017-07-21T02:17:47.847Z,1013.77
2017-07-21T02:18:56.745Z,1013.76
2017-07-21T02:20:06.697Z,1013.75
2017-07-21T02:21:15.900Z,1013.76
2017-07-21T02:22:25.427Z,1013.76
2017-07-21T02:23:34.954Z,1013.74
2017-07-21T02:24:44.484Z,1013.73
2017-07-21T02:25:53.514Z,1013.74
2017-07-21T02:27:02.720Z,1013.76
2017-07-21T02:28:12.248Z,1013.71
2017-07-21T02:29:21.132Z,1013.74
2017-07-21T02:30:30.663Z,1013.79
2017-07-21T02:31:41.026Z,1013.76
2017-07-21T02:32:51.213Z,1013.77
2017-07-21T02:34:01.067Z,1013.8
2017-07-21T02:35:10.599Z,1013.79
2017-07-21T02:36:20.128Z,1013.79
2017-07-21T02:37:29.484Z,1013.81
2017-07-21T02:38:39.339Z,1013.84
2017-07-21T02:39:49.526Z,1013.86
2017-07-21T02:40:58.735Z,1013.84
2017-07-21T02:42:08.270Z,1013.89
2017-07-21T02:43:18.223Z,1013.89
2017-07-21T02:44:27.117Z,1013.9
2017-07-21T02:45:36.323Z,1013.87
2017-07-21T02:46:46.503Z,1013.92
2017-07-21T02:47:55.709Z,1013.9
2017-07-21T02:49:05.385Z,1013.93
2017-07-21T02:50:14.916Z,1013.89
2017-07-21T02:51:24.453Z,1013.89
2017-07-21T02:52:33.986Z,1013.91
2017-07-21T02:53:42.869Z,1013.95
2017-07-21T02:54:52.647Z,1013.93
2017-07-21T02:56:02.176Z,1013.94
2017-07-21T02:57:11.381Z,1013.93
2017-07-21T02:58:20.912Z,1013.98
2017-07-21T02:59:30.771Z,1013.99
2017-07-21T03:00:40.103Z,1013.94
2017-07-21T03:01:49.962Z,1014.02
2017-07-21T03:02:59.171Z,1013.99
2017-07-21T03:04:08.705Z,1013.98
2017-07-21T03:05:17.913Z,1013.92
2017-07-21T03:06:27.221Z,1013.93
2017-07-21T03:07:36.424Z,1013.99
2017-07-21T03:08:46.272Z,1014.02
2017-07-21T03:09:55.475Z,1014
2017-07-21T03:11:04.678Z,1014
2017-07-21T03:12:14.678Z,1013.99
2017-07-21T03:13:24.201Z,1014.05
2017-07-21T03:14:33.404Z,1014.01
2017-07-21T03:15:42.938Z,1014.06
2017-07-21T03:16:51.817Z,1014.09
2017-07-21T03:18:01.120Z,1014.09
2017-07-21T03:19:10.321Z,1014.03
2017-07-21T03:20:19.218Z,1014.11
2017-07-21T03:21:29.393Z,1014.12
2017-07-21T03:22:39.240Z,1014.13
2017-07-21T03:23:48.774Z,1014.09
2017-07-21T03:24:58.309Z,1014.14
2017-07-21T03:26:08.164Z,1014.17
2017-07-21T03:27:17.045Z,1014.15
2017-07-21T03:28:26.257Z,1014.18
2017-07-21T03:29:35.199Z,1014.14
2017-07-21T03:30:44.733Z,1014.16
2017-07-21T03:31:54.930Z,1014.17
2017-07-21T03:33:04.785Z,1014.19
2017-07-21T03:34:13.665Z,1014.18
2017-07-21T03:35:23.343Z,1014.17
2017-07-21T03:36:32.551Z,1014.19
2017-07-21T03:37:41.758Z,1014.23
2017-07-21T03:38:51.626Z,1014.22
2017-07-21T03:40:01.802Z,1014.2
2017-07-21T03:41:11.507Z,1014.21
2017-07-21T03:42:21.363Z,1014.21
2017-07-21T03:43:30.573Z,1014.24
2017-07-21T03:44:39.450Z,1014.26
2017-07-21T03:45:48.976Z,1014.22
2017-07-21T03:46:58.235Z,1014.22
2017-07-21T03:48:07.764Z,1014.26
2017-07-21T03:49:17.298Z,1014.32
2017-07-21T03:50:26.827Z,1014.32
2017-07-21T03:51:36.357Z,1014.36
2017-07-21T03:52:45.709Z,1014.37
2017-07-21T03:53:54.910Z,1014.39
2017-07-21T03:55:04.438Z,1014.38
2017-07-21T03:56:14.652Z,1014.4
2017-07-21T03:57:24.510Z,1014.36
2017-07-21T03:58:34.194Z,1014.41
2017-07-21T03:59:43.730Z,1014.4
2017-07-21T04:00:53.255Z,1014.43
2017-07-21T04:02:03.107Z,1014.41
2017-07-21T04:03:12.310Z,1014.42
2017-07-21T04:04:21.678Z,1014.38
2017-07-21T04:05:30.886Z,1014.39
2017-07-21T04:06:40.422Z,1014.4
2017-07-21T04:07:49.625Z,1014.4
2017-07-21T04:08:58.833Z,1014.4
2017-07-21T04:10:08.387Z,1014.47
2017-07-21T04:11:17.589Z,1014.48
2017-07-21T04:12:26.805Z,1014.44
2017-07-21T04:13:36.327Z,1014.52
2017-07-21T04:14:45.529Z,1014.49
2017-07-21T04:15:55.857Z,1014.49
2017-07-21T04:17:05.386Z,1014.5
2017-07-21T04:18:14.912Z,1014.47
2017-07-21T04:19:24.441Z,1014.52
2017-07-21T04:20:33.330Z,1014.5
2017-07-21T04:21:42.534Z,1014.49
2017-07-21T04:22:51.740Z,1014.56
2017-07-21T04:24:01.591Z,1014.56
2017-07-21T04:25:11.123Z,1014.58
2017-07-21T04:26:20.650Z,1014.62
2017-07-21T04:27:30.285Z,1014.67
2017-07-21T04:28:39.832Z,1014.69
2017-07-21T04:29:49.370Z,1014.66
2017-07-21T04:30:58.898Z,1014.68
2017-07-21T04:32:08.109Z,1014.69
2017-07-21T04:33:17.766Z,1014.74
2017-07-21T04:34:26.646Z,1014.75
2017-07-21T04:35:36.170Z,1014.77
2017-07-21T04:36:45.375Z,1014.76
2017-07-21T04:37:54.903Z,1014.76
2017-07-21T04:39:04.901Z,1014.76
2017-07-21T04:40:14.116Z,1014.8
2017-07-21T04:41:23.969Z,1014.82
2017-07-21T04:42:33.826Z,1014.81
2017-07-21T04:43:43.033Z,1014.82
2017-07-21T04:44:52.862Z,1014.81
2017-07-21T04:46:02.067Z,1014.83
2017-07-21T04:47:11.599Z,1014.86
2017-07-21T04:48:21.126Z,1014.85
2017-07-21T04:49:30.342Z,1014.89
2017-07-21T04:50:39.647Z,1014.86
2017-07-21T04:51:48.853Z,1014.86
2017-07-21T04:52:58.052Z,1014.83
2017-07-21T04:54:07.583Z,1014.87
2017-07-21T04:55:16.790Z,1014.88
2017-07-21T04:56:26.619Z,1014.89
2017-07-21T04:57:35.831Z,1014.85
2017-07-21T04:58:44.715Z,1014.86
2017-07-21T04:59:54.240Z,1014.89
2017-07-21T05:01:03.127Z,1014.89
2017-07-21T05:02:13.132Z,1014.85
2017-07-21T05:03:22.664Z,1014.86
2017-07-21T05:04:32.194Z,1014.87
2017-07-21T05:05:42.045Z,1014.85
2017-07-21T05:06:51.251Z,1014.84
2017-07-21T05:08:00.930Z,1014.82
2017-07-21T05:09:10.780Z,1014.8
2017-07-21T05:10:20.312Z,1014.84
2017-07-21T05:11:29.847Z,1014.85
2017-07-21T05:12:39.378Z,1014.86
2017-07-21T05:13:48.963Z,1014.81
2017-07-21T05:14:58.494Z,1014.85
2017-07-21T05:16:08.032Z,1014.83
2017-07-21T05:17:16.917Z,1014.83
2017-07-21T05:18:26.123Z,1014.8
2017-07-21T05:19:35.213Z,1014.81
2017-07-21T05:20:45.089Z,1014.81
2017-07-21T05:21:54.342Z,1014.78
2017-07-21T05:23:03.872Z,1014.8
2017-07-21T05:24:13.092Z,1014.79
2017-07-21T05:25:23.157Z,1014.78
2017-07-21T05:26:32.695Z,1014.82
2017-07-21T05:27:41.904Z,1014.84
2017-07-21T05:28:51.118Z,1014.8
2017-07-21T05:30:00.001Z,1014.81
2017-07-21T05:31:09.355Z,1014.87
2017-07-21T05:32:19.206Z,1014.87
2017-07-21T05:33:28.734Z,1014.91
2017-07-21T05:34:38.262Z,1014.95
2017-07-21T05:35:47.791Z,1014.97
2017-07-21T05:36:57.693Z,1014.97
2017-07-21T05:38:07.235Z,1014.98
2017-07-21T05:39:17.084Z,1015.02
2017-07-21T05:40:25.971Z,1015.02
2017-07-21T05:41:35.499Z,1014.99
2017-07-21T05:42:44.783Z,1015
2017-07-21T05:43:53.992Z,1014.98
2017-07-21T05:45:03.198Z,1015.06
2017-07-21T05:46:12.087Z,1015.1
2017-07-21T05:47:21.936Z,1015.07
2017-07-21T05:48:32.094Z,1015.11
2017-07-21T05:49:41.311Z,1015.12
2017-07-21T05:50:50.843Z,1015.1
2017-07-21T05:52:00.374Z,1015.15
2017-07-21T05:53:10.232Z,1015.16
2017-07-21T05:54:19.492Z,1015.18
2017-07-21T05:55:28.374Z,1015.2
2017-07-21T05:56:37.587Z,1015.24
2017-07-21T05:57:46.790Z,1015.21
2017-07-21T05:58:56.000Z,1015.25
2017-07-21T06:00:05.730Z,1015.25
2017-07-21T06:01:14.613Z,1015.24
2017-07-21T06:02:23.816Z,1015.26
2017-07-21T06:03:32.701Z,1015.26
2017-07-21T06:04:42.237Z,1015.25
2017-07-21T06:05:51.446Z,1015.27
2017-07-21T06:07:00.976Z,1015.24
2017-07-21T06:08:10.824Z,1015.26
2017-07-21T06:09:20.034Z,1015.27
2017-07-21T06:10:29.243Z,1015.28
2017-07-21T06:11:38.508Z,1015.32
2017-07-21T06:12:47.405Z,1015.35
2017-07-21T06:13:56.942Z,1015.41
2017-07-21T06:15:06.799Z,1015.36
2017-07-21T06:16:16.004Z,1015.38
2017-07-21T06:17:24.886Z,1015.44
2017-07-21T06:18:33.767Z,1015.41
2017-07-21T06:19:42.656Z,1015.4
2017-07-21T06:20:51.857Z,1015.42
2017-07-21T06:22:01.754Z,1015.41
2017-07-21T06:23:11.112Z,1015.48
2017-07-21T06:24:20.317Z,1015.5
2017-07-21T06:25:30.173Z,1015.53
2017-07-21T06:26:39.379Z,1015.52
2017-07-21T06:27:49.233Z,1015.5
2017-07-21T06:28:58.592Z,1015.57
2017-07-21T06:30:07.809Z,1015.59
2017-07-21T06:31:17.342Z,1015.58
2017-07-21T06:32:26.882Z,1015.58
2017-07-21T06:33:36.083Z,1015.59
2017-07-21T06:34:45.078Z,1015.62
2017-07-21T06:35:53.986Z,1015.59
2017-07-21T06:37:03.515Z,1015.63
2017-07-21T06:38:13.694Z,1015.63
2017-07-21T06:39:22.899Z,1015.64
2017-07-21T06:40:31.787Z,1015.68
2017-07-21T06:41:40.677Z,1015.68
2017-07-21T06:42:50.219Z,1015.68
2017-07-21T06:44:00.093Z,1015.69
2017-07-21T06:45:09.307Z,1015.67
2017-07-21T06:46:18.611Z,1015.69
2017-07-21T06:47:27.506Z,1015.73
2017-07-21T06:48:36.714Z,1015.73
2017-07-21T06:49:45.602Z,1015.72
2017-07-21T06:50:54.814Z,1015.73
2017-07-21T06:52:04.675Z,1015.76
2017-07-21T06:53:13.882Z,1015.8
2017-07-21T06:54:23.421Z,1015.81
2017-07-21T06:55:33.282Z,1015.84
2017-07-21T06:56:43.150Z,1015.8
2017-07-21T06:57:52.355Z,1015.83
2017-07-21T06:59:01.935Z,1015.78
2017-07-21T07:00:10.825Z,1015.78
2017-07-21T07:01:19.706Z,1015.79
2017-07-21T07:02:28.917Z,1015.8
2017-07-21T07:03:38.424Z,1015.85
2017-07-21T07:04:47.633Z,1015.83
2017-07-21T07:05:56.514Z,1015.87
2017-07-21T07:07:06.051Z,1015.87
2017-07-21T07:08:15.309Z,1015.88
2017-07-21T07:09:24.618Z,1015.87
2017-07-21T07:10:33.828Z,1015.9
2017-07-21T07:11:42.713Z,1015.93
2017-07-21T07:12:52.245Z,1015.92
2017-07-21T07:14:01.776Z,1015.95
2017-07-21T07:15:11.281Z,1015.95
2017-07-21T07:16:20.489Z,1015.98
2017-07-21T07:17:30.093Z,1015.95
2017-07-21T07:18:39.625Z,1015.96
2017-07-21T07:19:48.834Z,1015.99
2017-07-21T07:20:58.039Z,1016.01
2017-07-21T07:22:07.598Z,1016.01
2017-07-21T07:23:17.136Z,1016.01
2017-07-21T07:24:26.343Z,1016.01
2017-07-21T07:25:35.555Z,1016.02
2017-07-21T07:26:44.766Z,1016.01
2017-07-21T07:27:53.978Z,1015.99
2017-07-21T07:29:03.506Z,1015.98
2017-07-21T07:30:12.715Z,1016.03
2017-07-21T07:31:22.072Z,1016.02
2017-07-21T07:32:31.284Z,1015.99
2017-07-21T07:33:40.176Z,1015.96
2017-07-21T07:34:49.705Z,1015.98
2017-07-21T07:35:58.965Z,1015.99
2017-07-21T07:37:08.818Z,1015.97
2017-07-21T07:38:18.673Z,1015.99
2017-07-21T07:39:27.884Z,1015.97
2017-07-21T07:40:37.419Z,1015.94
2017-07-21T07:41:46.629Z,1015.95
2017-07-21T07:42:56.159Z,1015.9
2017-07-21T07:44:05.368Z,1015.91
2017-07-21T07:45:14.587Z,1015.96
2017-07-21T07:46:24.688Z,1015.97
2017-07-21T07:47:33.575Z,1015.95
2017-07-21T07:48:43.118Z,1016.02
2017-07-21T07:49:52.324Z,1015.99
2017-07-21T07:51:01.869Z,1016
2017-07-21T07:52:11.138Z,1016.03
2017-07-21T07:53:20.021Z,1016.01
2017-07-21T07:54:29.890Z,1016.05
2017-07-21T07:55:39.425Z,1016
2017-07-21T07:56:48.308Z,1016.01
2017-07-21T07:57:57.249Z,1016.01
2017-07-21T07:59:06.467Z,1016.06
2017-07-21T08:00:15.681Z,1016.04
2017-07-21T08:01:24.892Z,1016.06
2017-07-21T08:02:34.426Z,1016.06
2017-07-21T08:03:43.695Z,1016.06
2017-07-21T08:04:53.228Z,1016.07
2017-07-21T08:06:02.117Z,1016.08
2017-07-21T08:07:11.321Z,1016.06
2017-07-21T08:08:20.537Z,1016.03
2017-07-21T08:09:29.848Z,1016.06
2017-07-21T08:10:39.385Z,1016.03
2017-07-21T08:11:48.825Z,1016.05
2017-07-21T08:12:58.685Z,1016.08
2017-07-21T08:14:07.891Z,1016.07
2017-07-21T08:15:17.250Z,1016.08
2017-07-21T08:16:26.787Z,1016.1
2017-07-21T08:17:36.648Z,1016.1
2017-07-21T08:18:45.858Z,1016.14
2017-07-21T08:19:55.387Z,1016.1
2017-07-21T08:21:05.343Z,1016.08
2017-07-21T08:22:14.550Z,1016.07
2017-07-21T08:23:23.437Z,1016.16
2017-07-21T08:24:32.640Z,1016.13
2017-07-21T08:25:41.870Z,1016.1
2017-07-21T08:26:51.550Z,1016.1
2017-07-21T08:28:00.435Z,1016.17
2017-07-21T08:29:10.309Z,1016.21
2017-07-21T08:30:19.520Z,1016.14
2017-07-21T08:31:28.422Z,1016.16
2017-07-21T08:32:38.214Z,1016.23
2017-07-21T08:33:47.434Z,1016.25
2017-07-21T08:34:56.321Z,1016.25
2017-07-21T08:36:05.530Z,1016.28
2017-07-21T08:37:14.739Z,1016.28
2017-07-21T08:38:24.201Z,1016.29
2017-07-21T08:39:33.425Z,1016.26
2017-07-21T08:40:42.305Z,1016.21
2017-07-21T08:41:52.159Z,1016.28
2017-07-21T08:43:01.046Z,1016.27
2017-07-21T08:44:11.520Z,1016.29
2017-07-21T08:45:20.740Z,1016.24
2017-07-21T08:46:30.287Z,1016.29
2017-07-21T08:47:39.819Z,1016.29
2017-07-21T08:48:49.024Z,1016.28
2017-07-21T08:49:58.654Z,1016.33
2017-07-21T08:51:08.189Z,1016.34
2017-07-21T08:52:17.406Z,1016.31
2017-07-21T08:53:27.261Z,1016.33
2017-07-21T08:54:36.469Z,1016.27
2017-07-21T08:55:46.380Z,1016.3
2017-07-21T08:56:55.599Z,1016.32
2017-07-21T08:58:04.806Z,1016.32
2017-07-21T08:59:14.341Z,1016.29
2017-07-21T09:00:23.882Z,1016.28
2017-07-21T09:01:33.841Z,1016.32
2017-07-21T09:02:43.374Z,1016.34
2017-07-21T09:03:52.692Z,1016.38
2017-07-21T09:05:01.900Z,1016.38
2017-07-21T09:06:11.113Z,1016.42
2017-07-21T09:07:20.640Z,1016.41
2017-07-21T09:08:29.525Z,1016.39
2017-07-21T09:09:39.080Z,1016.38
2017-07-21T09:10:48.087Z,1016.31
2017-07-21T09:11:57.101Z,1016.31
2017-07-21T09:13:06.609Z,1016.35
2017-07-21T09:14:16.465Z,1016.33
2017-07-21T09:15:25.672Z,1016.35
2017-07-21T09:16:35.203Z,1016.35
2017-07-21T09:17:44.087Z,1016.38
2017-07-21T09:18:53.294Z,1016.37
2017-07-21T09:20:02.524Z,1016.36
2017-07-21T09:21:12.429Z,1016.39
2017-07-21T09:22:21.977Z,1016.32
2017-07-21T09:23:30.886Z,1016.36
2017-07-21T09:24:40.120Z,1016.36
2017-07-21T09:25:49.985Z,1016.4
2017-07-21T09:26:59.998Z,1016.42
2017-07-21T09:28:08.989Z,1016.35
2017-07-21T09:29:18.238Z,1016.38
2017-07-21T09:30:27.604Z,1016.35
2017-07-21T09:31:37.135Z,1016.33
2017-07-21T09:32:46.347Z,1016.35
2017-07-21T09:33:55.563Z,1016.31
2017-07-21T09:35:05.517Z,1016.34
2017-07-21T09:36:15.685Z,1016.32
2017-07-21T09:37:38.700Z,1016.32
2017-07-21T09:38:47.819Z,1016.28
2017-07-21T09:39:58.052Z,1016.29
2017-07-21T09:43:01.494Z,1016.31
2017-07-21T09:44:12.493Z,1016.36
2017-07-21T09:45:21.844Z,1016.33
2017-07-21T09:46:31.682Z,1016.39
2017-07-21T09:47:40.583Z,1016.35
2017-07-21T09:48:49.526Z,1016.35
2017-07-21T09:49:59.014Z,1016.35
2017-07-21T09:51:08.372Z,1016.38
2017-07-21T09:52:17.841Z,1016.36
2017-07-21T09:53:26.832Z,1016.33
2017-07-21T09:54:36.088Z,1016.35
2017-07-21T09:55:46.206Z,1016.37
2017-07-21T09:56:55.237Z,1016.37
2017-07-21T09:58:05.062Z,1016.39
2017-07-21T09:59:14.815Z,1016.39
2017-07-21T10:00:24.228Z,1016.35
2017-07-21T10:01:34.340Z,1016.42
2017-07-21T10:02:43.497Z,1016.4
2017-07-21T10:05:31.846Z,1016.39
2017-07-21T10:06:41.201Z,1016.36
2017-07-21T10:07:50.240Z,1016.38
2017-07-21T10:09:00.183Z,1016.38
2017-07-21T10:10:09.861Z,1016.35
2017-07-21T10:11:20.592Z,1016.34
2017-07-21T10:12:29.818Z,1016.26
2017-07-21T10:13:39.425Z,1016.27
2017-07-21T10:14:48.911Z,1016.25
2017-07-21T10:15:58.314Z,1016.26
2017-07-21T10:17:07.649Z,1016.29
2017-07-21T10:18:17.586Z,1016.28
2017-07-21T10:19:27.526Z,1016.31
2017-07-21T10:20:37.497Z,1016.28
2017-07-21T10:21:46.830Z,1016.28
2017-07-21T10:22:55.909Z,1016.27
2017-07-21T10:24:05.305Z,1016.27
2017-07-21T10:25:14.740Z,1016.24
2017-07-21T10:26:25.111Z,1016.26
2017-07-21T10:27:34.652Z,1016.25
2017-07-21T10:28:44.497Z,1016.22
2017-07-21T10:29:54.690Z,1016.23
2017-07-21T10:31:04.238Z,1016.27
2017-07-21T10:32:13.911Z,1016.28
2017-07-21T10:33:23.772Z,1016.26
2017-07-21T10:34:33.456Z,1016.21
2017-07-21T10:35:43.190Z,1016.23
2017-07-21T10:36:52.515Z,1016.21
2017-07-21T10:38:02.314Z,1016.2
2017-07-21T10:39:12.076Z,1016.2
2017-07-21T10:40:21.418Z,1016.18
2017-07-21T10:41:30.793Z,1016.18
2017-07-21T10:42:40.457Z,1016.16
2017-07-21T10:43:50.008Z,1016.15
2017-07-21T10:45:00.266Z,1016.16
2017-07-21T10:46:11.945Z,1016.15
2017-07-21T10:47:23.437Z,1016.18
2017-07-21T10:48:32.599Z,1016.17
2017-07-21T10:49:43.179Z,1016.15
2017-07-21T10:50:52.422Z,1016.16
2017-07-21T10:52:01.306Z,1016.13
2017-07-21T10:53:10.521Z,1016.13
2017-07-21T10:54:20.053Z,1016.15
2017-07-21T10:55:29.635Z,1016.15
2017-07-21T10:56:39.175Z,1016.17
2017-07-21T10:57:49.068Z,1016.14
2017-07-21T10:58:58.299Z,1016.16
2017-07-21T11:00:07.194Z,1016.13
2017-07-21T11:01:16.869Z,1016.09
2017-07-21T11:02:26.085Z,1016.05
2017-07-21T11:03:35.623Z,1016.1
2017-07-21T11:04:45.482Z,1016.14
2017-07-21T11:05:55.095Z,1016.11
2017-07-21T11:07:04.784Z,1016.11
2017-07-21T11:08:14.003Z,1016.09
2017-07-21T11:09:23.559Z,1016.08
2017-07-21T11:10:33.246Z,1016.05
2017-07-21T11:11:42.559Z,1016.06
2017-07-21T11:12:52.038Z,1016.08
2017-07-21T11:14:01.669Z,1016.09
2017-07-21T11:15:11.435Z,1016.11
2017-07-21T11:16:20.773Z,1016.06
2017-07-21T11:17:30.077Z,1016.05
2017-07-21T11:18:40.685Z,1016.08
2017-07-21T11:19:52.065Z,1016.07
2017-07-21T11:21:01.784Z,1016.05
2017-07-21T11:22:11.413Z,1016.08
2017-07-21T11:23:21.389Z,1016.07
2017-07-21T11:24:31.643Z,1016.09
2017-07-21T11:25:41.371Z,1016.05
2017-07-21T11:26:50.671Z,1016.07
2017-07-21T11:28:00.046Z,1016.07
2017-07-21T11:29:09.859Z,1016.11
2017-07-21T11:30:19.442Z,1016.09
2017-07-21T11:31:28.986Z,1016.08
2017-07-21T11:32:38.521Z,1016.15
2017-07-21T11:33:48.378Z,1016.07
2017-07-21T11:34:57.602Z,1016.1
2017-07-21T11:36:07.613Z,1016.08
2017-07-21T11:37:17.058Z,1016.08
2017-07-21T11:38:26.946Z,1016.04
2017-07-21T11:39:36.904Z,1016.05
2017-07-21T11:40:50.597Z,1016.05
2017-07-21T11:42:00.210Z,1016.03
2017-07-21T11:43:09.951Z,1016.02
2017-07-21T11:44:19.504Z,1016.08
2017-07-21T11:45:29.701Z,1016.04
2017-07-21T11:46:42.814Z,1016.07
2017-07-21T11:47:53.434Z,1016.12
2017-07-21T11:49:03.317Z,1016.09
2017-07-21T11:50:12.997Z,1016.09
2017-07-21T11:51:22.305Z,1016.11
2017-07-21T11:52:39.469Z,1016.11
2017-07-21T11:53:49.674Z,1016.1
2017-07-21T11:54:59.242Z,1016.1
2017-07-21T11:56:08.284Z,1016.09
2017-07-21T11:57:18.194Z,1016.09
2017-07-21T11:58:28.249Z,1016.11
2017-07-21T11:59:38.309Z,1016.08
2017-07-21T12:00:47.683Z,1016.05
2017-07-21T12:01:57.625Z,1016.09
2017-07-21T12:03:07.562Z,1016.08
2017-07-21T12:04:16.625Z,1016.09
2017-07-21T12:07:06.080Z,1016.03
2017-07-21T12:08:19.929Z,1016.17
2017-07-21T12:09:30.026Z,1016.12
2017-07-21T12:10:39.574Z,1016.02
2017-07-21T12:11:49.389Z,1016.14
2017-07-21T12:13:00.056Z,1016.16
2017-07-21T12:14:09.195Z,1016.11
2017-07-21T12:15:18.593Z,1016.11
2017-07-21T12:16:29.021Z,1016.14
2017-07-21T12:17:38.686Z,1016.15
2017-07-21T12:18:47.750Z,1016.13
2017-07-21T12:19:57.893Z,1016.11
2017-07-21T12:21:07.633Z,1016.11
2017-07-21T12:22:17.604Z,1016.05
2017-07-21T12:23:26.642Z,1016.04
2017-07-21T12:24:35.971Z,1016.13
2017-07-21T12:25:45.683Z,1016.06
2017-07-21T12:26:55.043Z,1016.05
2017-07-21T12:28:04.787Z,1015.98
2017-07-21T12:29:14.547Z,1015.91
2017-07-21T12:30:23.974Z,1015.95
2017-07-21T12:31:33.881Z,1015.92
2017-07-21T12:32:43.290Z,1015.97
2017-07-21T12:33:53.214Z,1015.96
2017-07-21T12:35:02.699Z,1015.85
2017-07-21T12:36:12.642Z,1015.93
2017-07-21T12:37:22.642Z,1015.95
2017-07-21T12:38:32.327Z,1015.94
2017-07-21T12:39:42.258Z,1015.86
2017-07-21T12:40:51.288Z,1015.83
2017-07-21T12:42:00.911Z,1015.92
2017-07-21T12:43:09.997Z,1015.94
2017-07-21T12:44:19.324Z,1015.9
2017-07-21T12:45:28.882Z,1015.86
2017-07-21T12:46:38.239Z,1015.86
2017-07-21T12:47:47.956Z,1015.81
2017-07-21T12:48:56.990Z,1015.76
2017-07-21T12:50:06.747Z,1015.81
2017-07-21T12:51:16.050Z,1015.78
2017-07-21T12:52:25.558Z,1015.71
2017-07-21T12:53:35.992Z,1015.69
2017-07-21T12:54:45.014Z,1015.67
2017-07-21T12:55:54.997Z,1015.67
2017-07-21T12:57:04.884Z,1015.71
2017-07-21T12:58:15.181Z,1015.65
2017-07-21T12:59:24.584Z,1015.72
2017-07-21T13:00:34.953Z,1015.67
2017-07-21T13:01:44.260Z,1015.66
2017-07-21T13:02:53.609Z,1015.81
2017-07-21T13:04:03.256Z,1015.7
2017-07-21T13:05:12.955Z,1015.73
2017-07-21T13:06:22.054Z,1015.72
2017-07-21T13:07:31.670Z,1015.79
2017-07-21T13:08:41.171Z,1015.73
2017-07-21T13:09:50.151Z,1015.7
2017-07-21T13:11:00.535Z,1015.66
2017-07-21T13:12:09.927Z,1015.69
2017-07-21T13:13:19.621Z,1015.66
2017-07-21T13:14:29.718Z,1015.68
2017-07-21T13:15:39.023Z,1015.68
2017-07-21T13:16:48.544Z,1015.72
2017-07-21T13:17:58.255Z,1015.64
2017-07-21T13:19:07.773Z,1015.57
2017-07-21T13:20:17.041Z,1015.61
2017-07-21T13:21:27.184Z,1015.74
2017-07-21T13:22:36.405Z,1015.62
2017-07-21T13:23:45.958Z,1015.56
2017-07-21T13:24:55.176Z,1015.61
2017-07-21T13:27:44.673Z,1015.72
2017-07-21T13:28:55.119Z,1015.62
2017-07-21T13:30:05.115Z,1015.68
2017-07-21T13:31:14.894Z,1015.71
2017-07-21T13:32:24.407Z,1015.61
2017-07-21T13:33:33.628Z,1015.64
2017-07-21T13:34:44.089Z,1015.75
2017-07-21T13:35:54.104Z,1015.59
2017-07-21T13:37:03.495Z,1015.55
2017-07-21T13:38:14.733Z,1015.59
2017-07-21T13:39:24.676Z,1015.67
2017-07-21T13:40:33.768Z,1015.71
2017-07-21T13:41:44.653Z,1015.73
2017-07-21T13:42:53.934Z,1015.66
2017-07-21T13:44:03.634Z,1015.69
2017-07-21T13:45:13.227Z,1015.69
2017-07-21T13:46:22.540Z,1015.59
2017-07-21T13:47:32.225Z,1015.52
2017-07-21T13:48:42.094Z,1015.57
2017-07-21T13:49:51.422Z,1015.6
2017-07-21T13:51:00.668Z,1015.7
2017-07-21T13:52:10.379Z,1015.65
2017-07-21T13:53:20.166Z,1015.66
2017-07-21T13:54:29.503Z,1015.67
2017-07-21T13:55:38.504Z,1015.49
2017-07-21T13:56:47.731Z,1015.45
2017-07-21T13:57:57.278Z,1015.46
2017-07-21T13:59:07.475Z,1015.43
2017-07-21T14:00:17.443Z,1015.47
2017-07-21T14:01:26.943Z,1015.47
2017-07-21T14:02:36.636Z,1015.45
2017-07-21T14:03:45.856Z,1015.45
2017-07-21T14:04:55.074Z,1015.43
2017-07-21T14:06:05.095Z,1015.43
2017-07-21T14:07:14.316Z,1015.39
2017-07-21T14:08:23.535Z,1015.4
2017-07-21T14:09:32.432Z,1015.38
2017-07-21T14:10:41.665Z,1015.36